createdAt,value
2018-12-30T00:04:07.805Z,3.17
2018-12-30T00:09:12.374Z,3.53
2018-12-30T00:14:16.746Z,3.50
2018-12-30T00:19:21.561Z,2.87
2018-12-30T00:24:25.647Z,3.30
2018-12-30T00:29:30.337Z,3.30
2018-12-30T00:34:34.705Z,3.10
2018-12-30T00:39:38.783Z,3.13
2018-12-30T00:44:42.898Z,3.53
2018-12-30T00:49:47.895Z,3.60
2018-12-30T00:54:52.280Z,3.30
2018-12-30T00:59:56.690Z,3.63
2018-12-30T01:05:00.780Z,3.40
2018-12-30T01:10:08.497Z,3.60
2018-12-30T01:15:12.920Z,3.20
2018-12-30T01:20:16.974Z,3.80
2018-12-30T01:25:21.301Z,4.65
2018-12-30T01:30:25.693Z,3.53
2018-12-30T01:35:30.040Z,4.00
2018-12-30T01:40:34.366Z,3.35
2018-12-30T01:45:38.694Z,4.00
2018-12-30T01:50:43.329Z,3.60
2018-12-30T01:55:47.420Z,4.47
2018-12-30T02:00:51.466Z,3.57
2018-12-30T02:05:56.172Z,3.77
2018-12-30T02:11:00.551Z,4.00
2018-12-30T02:16:05.305Z,3.80
2018-12-30T02:21:09.686Z,3.47
2018-12-30T02:26:14.404Z,3.70
2018-12-30T02:31:18.483Z,4.00
2018-12-30T02:36:23.184Z,4.05
2018-12-30T02:41:27.555Z,3.40
2018-12-30T02:46:32.453Z,3.70
2018-12-30T02:51:36.521Z,4.00
2018-12-30T02:56:41.290Z,4.23
2018-12-30T03:01:45.653Z,3.43
2018-12-30T03:06:50.001Z,3.67
2018-12-30T03:11:54.322Z,3.70
2018-12-30T03:16:58.402Z,4.77
2018-12-30T03:22:02.742Z,3.93
2018-12-30T03:27:07.070Z,3.63
2018-12-30T03:32:11.778Z,3.57
2018-12-30T03:37:16.151Z,3.73
2018-12-30T03:42:20.415Z,3.60
2018-12-30T03:47:24.543Z,3.57
2018-12-30T03:52:29.126Z,4.00
2018-12-30T03:57:33.499Z,4.15
2018-12-30T04:02:37.572Z,4.13
2018-12-30T04:07:41.595Z,3.90
2018-12-30T04:12:45.912Z,4.80
2018-12-30T04:17:49.983Z,4.10
2018-12-30T04:22:54.309Z,3.80
2018-12-30T04:27:58.678Z,4.17
2018-12-30T04:33:02.977Z,3.87
2018-12-30T04:38:07.015Z,3.90
2018-12-30T04:43:11.583Z,3.93
2018-12-30T04:48:16.180Z,4.27
2018-12-30T04:53:20.541Z,3.90
2018-12-30T04:58:24.610Z,2.93
2018-12-30T05:03:28.936Z,3.20
2018-12-30T05:08:33.545Z,3.73
2018-12-30T05:13:38.140Z,3.77
2018-12-30T05:18:42.498Z,3.80
2018-12-30T05:23:47.167Z,4.30
2018-12-30T05:28:51.483Z,4.97
2018-12-30T05:33:55.806Z,4.40
2018-12-30T05:39:00.498Z,4.47
2018-12-30T05:44:05.119Z,3.83
2018-12-30T05:49:09.461Z,4.90
2018-12-30T05:54:13.823Z,3.97
2018-12-30T05:59:18.199Z,3.87
2018-12-30T06:04:22.508Z,3.75
2018-12-30T06:09:26.880Z,3.50
2018-12-30T06:14:31.585Z,4.17
2018-12-30T06:19:36.177Z,3.77
2018-12-30T06:24:40.538Z,4.07
2018-12-30T06:29:45.195Z,4.07
2018-12-30T06:34:49.788Z,4.50
2018-12-30T06:39:54.225Z,3.97
2018-12-30T06:44:58.827Z,3.80
2018-12-30T06:50:03.434Z,3.97
2018-12-30T06:55:08.043Z,4.60
2018-12-30T07:00:12.629Z,3.97
2018-12-30T07:05:17.185Z,4.23
2018-12-30T07:10:21.586Z,4.77
2018-12-30T07:15:25.912Z,4.43
2018-12-30T07:20:30.218Z,5.33
2018-12-30T07:25:34.305Z,4.33
2018-12-30T07:30:38.331Z,4.30
2018-12-30T07:35:42.372Z,3.80
2018-12-30T07:40:46.958Z,4.83
2018-12-30T07:45:51.319Z,4.40
2018-12-30T07:50:55.639Z,4.23
2018-12-30T07:55:59.964Z,4.20
2018-12-30T08:01:04.566Z,4.40
2018-12-30T08:06:08.932Z,4.40
2018-12-30T08:11:13.291Z,3.93
2018-12-30T08:16:17.744Z,4.27
2018-12-30T08:21:21.817Z,4.27
2018-12-30T08:26:26.411Z,4.27
2018-12-30T08:31:31.864Z,4.30
2018-12-30T08:36:36.449Z,4.13
2018-12-30T08:41:40.929Z,4.23
2018-12-30T08:46:45.535Z,4.20
2018-12-30T08:51:49.891Z,3.83
2018-12-30T08:56:54.255Z,3.63
2018-12-30T09:01:58.609Z,3.47
2018-12-30T09:07:02.682Z,2.97
2018-12-30T09:12:06.898Z,3.80
2018-12-30T09:17:11.164Z,3.90
2018-12-30T09:22:15.435Z,3.50
2018-12-30T09:27:19.495Z,2.90
2018-12-30T09:32:23.531Z,4.23
2018-12-30T09:37:27.598Z,4.90
2018-12-30T09:42:31.899Z,4.73
2018-12-30T09:47:36.558Z,4.57
2018-12-30T09:52:40.928Z,3.60
2018-12-30T09:57:45.235Z,4.10
2018-12-30T10:02:49.544Z,3.80
2018-12-30T10:07:53.617Z,5.17
2018-12-30T10:12:57.954Z,3.07
2018-12-30T10:18:02.045Z,3.33
2018-12-30T10:23:06.350Z,4.33
2018-12-30T10:28:10.725Z,3.40
2018-12-30T10:33:14.803Z,8.50
2018-12-30T10:38:19.397Z,3.67
2018-12-30T10:43:23.517Z,3.90
2018-12-30T10:48:27.561Z,4.05
2018-12-30T10:53:31.594Z,3.60
2018-12-30T10:58:36.235Z,3.37
2018-12-30T11:03:40.353Z,3.23
2018-12-30T11:08:44.437Z,2.97
2018-12-30T11:13:48.474Z,3.40
2018-12-30T11:18:52.873Z,3.47
2018-12-30T11:23:57.361Z,4.10
2018-12-30T11:29:01.413Z,3.37
2018-12-30T11:34:05.462Z,3.60
2018-12-30T11:39:09.516Z,3.53
2018-12-30T11:44:13.833Z,3.20
2018-12-30T11:49:17.929Z,3.80
2018-12-30T11:54:21.970Z,4.07
2018-12-30T11:59:26.005Z,4.00
2018-12-30T12:04:30.282Z,3.73
2018-12-30T12:09:34.321Z,3.87
2018-12-30T12:14:38.355Z,3.67
2018-12-30T12:19:43.494Z,3.60
2018-12-30T12:24:47.857Z,3.60
2018-12-30T12:29:52.225Z,4.15
2018-12-30T12:34:56.831Z,3.97
2018-12-30T12:40:00.919Z,3.87
2018-12-30T12:45:06.154Z,4.33
2018-12-30T12:50:10.244Z,4.63
2018-12-30T12:55:14.277Z,4.30
2018-12-30T13:00:18.313Z,4.23
2018-12-30T13:05:22.633Z,4.70
2018-12-30T13:10:26.717Z,4.60
2018-12-30T13:15:30.996Z,5.47
2018-12-30T13:20:35.320Z,5.17
2018-12-30T13:25:39.707Z,5.67
2018-12-30T13:30:44.396Z,5.77
2018-12-30T13:35:48.984Z,6.10
2018-12-30T13:40:53.073Z,5.33
2018-12-30T13:45:57.478Z,6.30
2018-12-30T13:51:01.522Z,5.80
2018-12-30T13:56:06.140Z,5.83
2018-12-30T14:01:10.466Z,5.50
2018-12-30T14:06:14.865Z,5.37
2018-12-30T14:11:18.934Z,5.50
2018-12-30T14:16:23.265Z,6.17
2018-12-30T14:21:27.966Z,5.67
2018-12-30T14:26:32.060Z,23.57
2018-12-30T14:31:36.393Z,6.87
2018-12-30T14:36:40.717Z,6.40
2018-12-30T14:41:45.311Z,6.77
2018-12-30T14:46:49.697Z,7.30
2018-12-30T14:51:54.296Z,7.62
2018-12-30T14:57:00.207Z,10.43
2018-12-30T15:02:04.538Z,8.83
2018-12-30T15:07:08.578Z,8.53
2018-12-30T15:12:12.973Z,7.83
2018-12-30T15:17:17.612Z,7.90
2018-12-30T15:22:21.689Z,7.67
2018-12-30T15:27:25.726Z,8.27
2018-12-30T15:32:30.050Z,7.97
2018-12-30T15:37:34.342Z,7.67
2018-12-30T15:42:38.668Z,7.00
2018-12-30T15:47:43.042Z,13.20
2018-12-30T15:52:47.342Z,7.87
2018-12-30T15:57:51.666Z,6.50
2018-12-30T16:02:56.031Z,7.53
2018-12-30T16:08:00.105Z,7.20
2018-12-30T16:13:04.215Z,6.80
2018-12-30T16:18:08.254Z,6.97
2018-12-30T16:23:12.301Z,6.93
2018-12-30T16:28:16.636Z,7.00
2018-12-30T16:33:21.281Z,7.13
2018-12-30T16:38:25.656Z,8.17
2018-12-30T16:43:29.717Z,7.37
2018-12-30T16:48:34.055Z,7.33
2018-12-30T16:53:38.773Z,9.00
2018-12-30T16:58:42.861Z,8.70
2018-12-30T17:03:47.188Z,7.83
2018-12-30T17:08:51.556Z,10.30
2018-12-30T17:13:55.654Z,6.40
2018-12-30T17:19:01.500Z,6.50
2018-12-30T17:24:05.598Z,5.53
2018-12-30T17:29:11.023Z,5.80
2018-12-30T17:34:16.342Z,4.90
2018-12-30T17:39:25.900Z,4.20
2018-12-30T17:44:28.795Z,4.83
2018-12-30T17:49:33.165Z,6.30
2018-12-30T17:54:37.246Z,4.90
2018-12-30T17:59:41.616Z,5.80
2018-12-30T18:04:45.986Z,5.10
2018-12-30T18:09:50.492Z,5.50
2018-12-30T18:14:54.821Z,5.70
2018-12-30T18:19:58.881Z,6.03
2018-12-30T18:25:03.214Z,9.30
2018-12-30T18:30:08.881Z,7.87
2018-12-30T18:35:13.242Z,13.63
2018-12-30T18:40:17.523Z,18.53
2018-12-30T18:45:22.047Z,10.23
2018-12-30T18:50:26.381Z,7.47
2018-12-30T18:55:30.736Z,6.57
2018-12-30T19:00:35.107Z,7.20
2018-12-30T19:05:39.201Z,7.17
2018-12-30T19:10:43.585Z,6.77
2018-12-30T19:15:47.925Z,6.93
2018-12-30T19:20:52.282Z,7.37
2018-12-30T19:26:00.973Z,8.20
2018-12-30T19:31:02.129Z,7.83
2018-12-30T19:36:06.467Z,8.63
2018-12-30T19:41:10.565Z,8.40
2018-12-30T19:46:14.615Z,9.87
2018-12-30T19:51:20.459Z,8.73
2018-12-30T19:56:24.791Z,8.63
2018-12-30T20:01:29.195Z,10.10
2018-12-30T20:06:33.910Z,9.73
2018-12-30T20:11:38.298Z,9.88
2018-12-30T20:16:42.449Z,10.70
2018-12-30T20:21:46.518Z,9.67
2018-12-30T20:26:50.884Z,10.07
2018-12-30T20:31:55.583Z,9.50
2018-12-30T20:36:59.991Z,9.23
2018-12-30T20:42:04.018Z,9.43
2018-12-30T20:47:08.077Z,9.77
2018-12-30T20:52:12.746Z,10.60
2018-12-30T20:57:16.849Z,9.90
2018-12-30T21:02:21.456Z,10.50
2018-12-30T21:07:25.839Z,9.97
2018-12-30T21:12:30.227Z,10.67
2018-12-30T21:17:34.676Z,11.67
2018-12-30T21:22:39.027Z,11.27
2018-12-30T21:27:43.178Z,11.53
2018-12-30T21:32:47.522Z,11.23
2018-12-30T21:37:52.137Z,12.03
2018-12-30T21:42:58.885Z,11.97
2018-12-30T21:48:03.264Z,12.17
2018-12-30T21:53:07.650Z,11.70
2018-12-30T21:58:12.030Z,12.10
2018-12-30T22:03:16.114Z,12.97
2018-12-30T22:08:20.463Z,12.40
2018-12-30T22:13:26.892Z,12.57
2018-12-30T22:18:31.224Z,12.80
2018-12-30T22:23:35.602Z,12.73
2018-12-30T22:28:39.935Z,14.73
2018-12-30T22:33:44.577Z,13.28
2018-12-30T22:38:48.966Z,13.10
2018-12-30T22:43:53.535Z,13.47
2018-12-30T22:48:57.915Z,12.60
2018-12-30T22:54:02.513Z,13.40
2018-12-30T22:59:07.247Z,14.13
2018-12-30T23:04:11.338Z,12.53
2018-12-30T23:09:15.955Z,12.50
2018-12-30T23:14:20.041Z,12.43
2018-12-30T23:19:24.417Z,12.53
2018-12-30T23:24:28.794Z,13.13
2018-12-30T23:29:33.164Z,13.90
2018-12-30T23:34:37.803Z,14.03
2018-12-30T23:39:42.193Z,14.53
2018-12-30T23:44:46.266Z,14.73
2018-12-30T23:49:50.609Z,15.63
2018-12-30T23:54:54.981Z,14.13
2018-12-30T23:59:59.477Z,14.53
